Time;durP1;ratioP1;P1;durP2;ratioP2;P2;SDS_P1;SDS_P2;PMS_P1;PMS_P2;Temp;Humidity;BMP_temperature;BMP_pressure;BME280_temperature;BME280_humidity;BME280_pressure;Samples;Min_cycle;Max_cycle;Signal;HPM_P1;HPM_P2
2024/01/29 00:02:21;;;;;;;18.40;13.97;;;;;;;1.14;100.00;98031.06;5134556;28;20200;-58
2024/01/29 00:04:48;;;;;;;15.73;13.03;;;;;;;1.12;100.00;98027.66;5129294;28;20243;-58
2024/01/29 00:07:16;;;;;;;16.30;13.30;;;;;;;1.15;100.00;98031.03;5113247;28;20201;-58
2024/01/29 00:09:45;;;;;;;15.77;13.23;;;;;;;1.18;100.00;98038.72;5112679;28;20622;-58
2024/01/29 00:12:13;;;;;;;16.87;13.63;;;;;;;1.18;100.00;98038.72;5112441;28;20201;-58
2024/01/29 00:14:39;;;;;;;17.03;13.63;;;;;;;1.14;100.00;98046.69;5113788;28;20660;-57
2024/01/29 00:17:09;;;;;;;15.97;13.53;;;;;;;1.14;100.00;98041.47;5112767;28;20197;-59
2024/01/29 00:19:36;;;;;;;15.17;13.43;;;;;;;1.18;100.00;98037.88;5113267;28;20240;-58
2024/01/29 00:22:03;;;;;;;16.43;14.20;;;;;;;1.15;100.00;98040.59;5128739;28;20276;-60
2024/01/29 00:24:30;;;;;;;16.67;14.27;;;;;;;1.18;100.00;98032.66;5130237;28;20300;-58
2024/01/29 00:26:57;;;;;;;18.33;14.10;;;;;;;1.26;100.00;98041.09;5119876;27;20276;-59
2024/01/29 00:29:24;;;;;;;18.07;13.37;;;;;;;1.26;100.00;98041.09;5125317;28;20348;-57
2024/01/29 00:31:53;;;;;;;18.90;14.53;;;;;;;1.27;100.00;98032.38;5125585;28;20253;-58
2024/01/29 00:34:19;;;;;;;18.10;14.77;;;;;;;1.28;100.00;98032.31;5130807;28;20424;-58
2024/01/29 00:36:46;;;;;;;20.30;15.03;;;;;;;1.33;100.00;98030.41;5113673;28;20700;-58
2024/01/29 00:39:13;;;;;;;20.00;16.00;;;;;;;1.35;100.00;98030.31;5113111;28;20236;-59
2024/01/29 00:41:40;;;;;;;19.47;15.13;;;;;;;1.34;100.00;98033.84;5112561;28;20201;-58
2024/01/29 00:44:06;;;;;;;23.23;16.33;;;;;;;1.40;100.00;98036.25;5112528;28;21390;-58
2024/01/29 00:46:34;;;;;;;27.13;17.40;;;;;;;1.41;100.00;98030.13;5114660;28;20205;-58
2024/01/29 00:49:01;;;;;;;25.47;17.93;;;;;;;1.43;100.00;98028.31;5112064;28;20626;-58
2024/01/29 00:51:27;;;;;;;27.03;18.63;;;;;;;1.46;100.00;98025.59;5111741;28;20210;-58
2024/01/29 00:53:54;;;;;;;25.60;18.10;;;;;;;1.41;100.00;98024.94;5112219;28;20288;-58
2024/01/29 00:56:21;;;;;;;26.53;17.67;;;;;;;1.41;100.00;98027.53;5110947;28;20291;-57
2024/01/29 00:58:48;;;;;;;25.93;17.90;;;;;;;1.43;100.00;98028.31;5111713;28;20197;-58
2024/01/29 01:01:14;;;;;;;32.37;17.37;;;;;;;1.44;100.00;98030.03;5111578;28;20228;-58
2024/01/29 01:03:42;;;;;;;33.20;18.37;;;;;;;1.46;100.00;98038.63;5112247;28;20220;-58
2024/01/29 01:06:10;;;;;;;37.90;18.30;;;;;;;1.45;100.00;98034.34;5112029;28;20197;-57
2024/01/29 01:08:38;;;;;;;35.03;17.87;;;;;;;1.45;100.00;98034.34;5111758;28;20669;-58
2024/01/29 01:11:05;;;;;;;34.17;16.23;;;;;;;1.43;100.00;98043.97;5110457;28;20212;-59
2024/01/29 01:13:31;;;;;;;29.23;15.93;;;;;;;1.34;100.00;98044.28;5111596;28;20281;-59
2024/01/29 01:15:59;;;;;;;23.80;17.00;;;;;;;1.39;100.00;98047.56;5111796;28;20212;-58
2024/01/29 01:18:28;;;;;;;27.07;16.60;;;;;;;1.36;100.00;98047.69;5111363;28;20201;-57
2024/01/29 01:20:56;;;;;;;23.80;15.73;;;;;;;1.35;100.00;98043.34;5111649;28;20221;-58
2024/01/29 01:23:23;;;;;;;24.93;15.67;;;;;;;1.32;100.00;98043.47;5111910;28;20224;-58
2024/01/29 01:25:52;;;;;;;20.33;15.40;;;;;;;1.29;100.00;98047.03;5111469;28;20189;-58
2024/01/29 01:28:18;;;;;;;23.30;16.60;;;;;;;1.24;100.00;98042.91;5112138;28;20208;-58
2024/01/29 01:30:47;;;;;;;23.50;16.53;;;;;;;1.25;100.00;98049.78;5111274;28;20200;-58
2024/01/29 01:33:14;;;;;;;26.03;16.97;;;;;;;1.28;100.00;98047.06;5111320;28;20232;-58
2024/01/29 01:35:40;;;;;;;19.70;15.77;;;;;;;1.37;100.00;98050.25;5111496;28;20247;-58
2024/01/29 01:38:08;;;;;;;26.33;17.47;;;;;;;1.40;100.00;98049.28;5111102;28;20207;-58
2024/01/29 01:40:35;;;;;;;23.70;15.97;;;;;;;1.49;100.00;98047.19;5111111;28;20617;-58
2024/01/29 01:43:14;;;;;;;48.27;17.17;;;;;;;1.39;100.00;98045.81;5111262;28;20227;-58
2024/01/29 01:45:44;;;;;;;34.90;17.80;;;;;;;1.42;100.00;98050.06;5113009;28;20609;-57
2024/01/29 01:48:11;;;;;;;45.57;17.60;;;;;;;1.43;100.00;98054.38;5123049;28;20193;-57
2024/01/29 01:50:38;;;;;;;37.53;16.80;;;;;;;1.40;100.00;98055.34;5122703;28;20284;-57
2024/01/29 01:53:12;;;;;;;38.37;17.30;;;;;;;1.40;100.00;98057.09;5115590;28;20201;-58
2024/01/29 01:55:40;;;;;;;26.87;15.10;;;;;;;1.44;100.00;98045.66;5110840;28;20302;-58
2024/01/29 01:58:07;;;;;;;19.20;14.97;;;;;;;1.43;100.00;98047.41;5110474;28;20606;-58
2024/01/29 02:00:34;;;;;;;49.07;17.27;;;;;;;1.29;100.00;98047.03;5110299;28;20244;-58
2024/01/29 02:03:01;;;;;;;29.70;16.33;;;;;;;1.33;100.00;98042.56;5111057;28;20280;-58
2024/01/29 02:05:28;;;;;;;43.90;17.17;;;;;;;1.32;100.00;98046.94;5110805;28;20321;-58
2024/01/29 02:07:56;;;;;;;55.23;16.87;;;;;;;1.31;100.00;98054.81;5114793;28;20303;-58
2024/01/29 02:10:24;;;;;;;55.43;17.13;;;;;;;1.23;100.00;98049.00;5118515;28;20280;-58
2024/01/29 02:12:51;;;;;;;35.90;15.73;;;;;;;1.24;100.00;98045.50;5113513;28;20205;-58
2024/01/29 02:15:19;;;;;;;28.83;15.80;;;;;;;1.29;100.00;98054.00;5120502;28;20205;-58
2024/01/29 02:17:45;;;;;;;26.40;15.17;;;;;;;1.25;100.00;98055.00;5113600;28;20233;-58
2024/01/29 02:20:12;;;;;;;32.40;15.43;;;;;;;1.26;100.00;98067.13;5126838;28;20292;-57
2024/01/29 02:22:44;;;;;;;35.37;14.97;;;;;;;1.23;100.00;98059.44;5114800;28;20677;-58
2024/01/29 02:25:12;;;;;;;34.30;15.47;;;;;;;1.24;100.00;98058.53;5114106;28;20235;-57
2024/01/29 02:27:38;;;;;;;62.90;17.27;;;;;;;1.15;100.00;98057.06;5115068;28;20211;-57
2024/01/29 02:30:07;;;;;;;49.80;16.13;;;;;;;1.13;100.00;98055.44;5114940;28;20286;-59
2024/01/29 02:32:34;;;;;;;29.90;15.27;;;;;;;1.24;100.00;98053.31;5113977;28;20193;-58
2024/01/29 02:35:00;;;;;;;69.33;16.40;;;;;;;1.18;100.00;98053.50;5114628;28;20212;-58
2024/01/29 02:37:27;;;;;;;55.57;15.73;;;;;;;1.20;100.00;98049.13;5114633;28;20296;-58
2024/01/29 02:39:58;;;;;;;30.57;15.37;;;;;;;1.14;100.00;98051.91;5113946;28;20219;-58
2024/01/29 02:42:25;;;;;;;43.97;15.73;;;;;;;1.13;100.00;98050.22;5114523;28;20284;-58
2024/01/29 02:44:54;;;;;;;34.53;15.40;;;;;;;1.13;100.00;98047.63;5114704;28;20227;-59
2024/01/29 02:47:21;;;;;;;37.37;14.77;;;;;;;1.14;100.00;98054.50;5114062;28;20209;-59
2024/01/29 02:49:50;;;;;;;33.90;14.27;;;;;;;1.12;100.00;98045.91;5114270;28;20205;-58
2024/01/29 02:52:16;;;;;;;37.17;14.47;;;;;;;1.12;100.00;98043.31;5113590;28;20213;-59
2024/01/29 02:54:43;;;;;;;19.17;13.07;;;;;;;1.12;100.00;98038.09;5113624;28;20527;-57
2024/01/29 02:57:11;;;;;;;36.97;13.47;;;;;;;1.07;100.00;98058.22;5113797;28;20687;-58
2024/01/29 02:59:41;;;;;;;21.23;12.53;;;;;;;1.08;100.00;98042.56;5113977;28;20208;-58
2024/01/29 03:02:08;;;;;;;28.47;13.43;;;;;;;1.03;100.00;98043.63;5113709;28;20263;-58
2024/01/29 03:04:35;;;;;;;17.17;12.27;;;;;;;1.04;100.00;98046.16;5113792;28;20328;-58
2024/01/29 03:07:02;;;;;;;23.80;13.00;;;;;;;0.96;100.00;98054.22;5112727;28;20201;-58
2024/01/29 03:09:29;;;;;;;24.10;12.97;;;;;;;1.00;100.00;98048.00;5113661;28;20201;-58
2024/01/29 03:11:56;;;;;;;31.03;13.60;;;;;;;0.98;100.00;98057.66;5113657;28;20211;-57
2024/01/29 03:14:24;;;;;;;31.63;14.13;;;;;;;1.02;100.00;98054.94;5113282;28;20205;-58
2024/01/29 03:16:52;;;;;;;24.83;12.77;;;;;;;1.00;100.00;98055.81;5113926;28;20197;-58
2024/01/29 03:19:18;;;;;;;24.77;12.47;;;;;;;0.97;100.00;98053.31;5113770;28;20965;-59
2024/01/29 03:21:48;;;;;;;34.87;13.40;;;;;;;0.96;100.00;98051.63;5113758;28;20227;-58
2024/01/29 03:24:15;;;;;;;32.27;12.40;;;;;;;0.99;100.00;98061.09;5113791;28;20227;-58
2024/01/29 03:26:44;;;;;;;30.77;12.53;;;;;;;0.94;100.00;98060.38;5113119;28;20262;-58
2024/01/29 03:29:11;;;;;;;21.60;12.77;;;;;;;0.93;100.00;98056.94;5113509;28;20240;-59
2024/01/29 03:31:39;;;;;;;22.87;12.47;;;;;;;0.81;100.00;98057.34;5113251;28;20207;-58
2024/01/29 03:34:05;;;;;;;27.73;12.63;;;;;;;0.70;100.00;98062.03;5112780;28;20205;-57
2024/01/29 03:36:32;;;;;;;40.07;13.80;;;;;;;0.69;100.00;98055.13;5112919;28;20215;-58
2024/01/29 03:38:58;;;;;;;29.63;12.33;;;;;;;0.65;100.00;98053.50;5113909;28;20223;-57
2024/01/29 03:41:27;;;;;;;19.07;12.57;;;;;;;0.74;100.00;98054.97;5113120;28;20303;-58
2024/01/29 03:43:56;;;;;;;24.10;12.43;;;;;;;0.63;100.00;98054.47;5113403;28;20223;-59
2024/01/29 03:46:25;;;;;;;21.93;12.47;;;;;;;0.71;100.00;98058.50;5112810;28;20657;-58
2024/01/29 03:48:53;;;;;;;25.60;12.83;;;;;;;0.64;100.00;98059.59;5113710;28;20211;-57
2024/01/29 03:51:20;;;;;;;31.93;12.70;;;;;;;0.55;100.00;98061.66;5112486;28;20633;-58
2024/01/29 03:53:47;;;;;;;33.53;12.50;;;;;;;0.57;100.00;98057.25;5113375;28;20200;-59
2024/01/29 03:56:15;;;;;;;35.67;13.63;;;;;;;0.56;100.00;98052.94;5114565;28;20672;-59
2024/01/29 03:58:41;;;;;;;26.07;12.13;;;;;;;0.59;100.00;98048.50;5120629;28;20207;-58
2024/01/29 04:01:08;;;;;;;22.17;12.60;;;;;;;0.69;100.00;98054.25;5112742;28;20656;-58
2024/01/29 04:03:35;;;;;;;17.33;12.43;;;;;;;0.68;100.00;98055.16;5112442;28;20493;-59
2024/01/29 04:06:06;;;;;;;26.43;12.97;;;;;;;0.65;100.00;98057.84;5113168;28;20217;-59
2024/01/29 04:08:33;;;;;;;20.83;12.03;;;;;;;0.74;100.00;98050.63;5112916;28;20213;-59
2024/01/29 04:11:00;;;;;;;33.37;12.87;;;;;;;0.64;100.00;98062.19;5112375;28;20647;-59
2024/01/29 04:13:29;;;;;;;31.87;12.87;;;;;;;0.56;100.00;98052.94;5112341;27;20199;-59
2024/01/29 04:15:56;;;;;;;36.60;12.50;;;;;;;0.48;100.00;98058.38;5112423;28;20628;-58
2024/01/29 04:18:26;;;;;;;28.60;12.47;;;;;;;0.50;100.00;98060.03;5112685;28;20232;-59
2024/01/29 04:20:54;;;;;;;17.23;11.80;;;;;;;0.54;100.00;98060.78;5113066;28;20220;-58
2024/01/29 04:23:24;;;;;;;28.80;12.80;;;;;;;0.48;100.00;98058.38;5112823;28;20224;-58
2024/01/29 04:25:52;;;;;;;26.97;12.53;;;;;;;0.56;100.00;98058.16;5113677;28;20520;-58
2024/01/29 04:28:19;;;;;;;20.27;11.43;;;;;;;0.52;100.00;98054.78;5112879;28;20644;-58
2024/01/29 04:30:46;;;;;;;25.83;13.03;;;;;;;0.52;100.00;98061.75;5113055;28;21247;-58
2024/01/29 04:33:12;;;;;;;13.90;11.30;;;;;;;0.55;100.00;98054.69;5113451;28;20288;-60
2024/01/29 04:35:41;;;;;;;19.37;11.83;;;;;;;0.50;100.00;98054.81;5114732;28;20211;-58
2024/01/29 04:38:08;;;;;;;15.97;11.17;;;;;;;0.56;100.00;98052.94;5113241;28;20209;-58
2024/01/29 04:40:39;;;;;;;17.63;11.77;;;;;;;0.56;100.00;98047.75;5112719;28;20195;-58
2024/01/29 04:43:06;;;;;;;14.67;11.03;;;;;;;0.51;100.00;98050.47;5112475;28;20576;-59
2024/01/29 04:45:33;;;;;;;15.10;12.00;;;;;;;0.63;100.00;98051.84;5112500;28;20231;-58
2024/01/29 04:47:59;;;;;;;14.07;11.83;;;;;;;0.59;100.00;98052.84;5112221;28;20196;-58
2024/01/29 04:50:27;;;;;;;34.13;14.13;;;;;;;0.54;100.00;98050.38;5112099;28;20348;-58
2024/01/29 04:52:55;;;;;;;20.77;11.37;;;;;;;0.55;100.00;98052.09;5112128;28;20215;-58
2024/01/29 04:55:22;;;;;;;19.50;11.00;;;;;;;0.50;100.00;98053.97;5111974;28;20207;-57
2024/01/29 04:57:50;;;;;;;45.00;13.37;;;;;;;0.48;100.00;98045.38;5112006;28;20215;-58
2024/01/29 05:00:17;;;;;;;30.17;12.57;;;;;;;0.50;100.00;98059.19;5111357;28;20673;-58
2024/01/29 05:02:47;;;;;;;26.90;12.07;;;;;;;0.57;100.00;98052.88;5112211;28;20269;-58
2024/01/29 05:05:15;;;;;;;18.20;10.80;;;;;;;0.59;100.00;98053.69;5111945;28;20556;-58
2024/01/29 05:07:42;;;;;;;24.43;10.67;;;;;;;0.56;100.00;98053.81;5112776;28;20205;-58
2024/01/29 05:10:13;;;;;;;24.83;11.57;;;;;;;0.47;100.00;98048.88;5112678;28;20232;-58
2024/01/29 05:12:39;;;;;;;23.20;11.40;;;;;;;0.50;100.00;98052.22;5113092;28;20240;-58
2024/01/29 05:15:08;;;;;;;14.57;11.20;;;;;;;0.55;100.00;98052.09;5114997;28;20296;-59
2024/01/29 05:17:35;;;;;;;26.33;12.90;;;;;;;0.55;100.00;98057.31;5110849;28;20208;-59
2024/01/29 05:20:01;;;;;;;34.63;12.63;;;;;;;0.54;100.00;98055.59;5110827;28;20212;-58
2024/01/29 05:22:28;;;;;;;16.03;11.33;;;;;;;0.62;100.00;98061.41;5111143;28;20292;-58
2024/01/29 05:24:54;;;;;;;22.90;15.07;;;;;;;0.63;100.00;98054.47;5110552;28;20239;-58
2024/01/29 05:27:21;;;;;;;42.97;12.83;;;;;;;0.59;100.00;98056.31;5111480;28;20208;-59
2024/01/29 05:29:48;;;;;;;25.30;12.57;;;;;;;0.62;100.00;98052.75;5111776;28;20596;-58
2024/01/29 05:32:16;;;;;;;29.70;11.87;;;;;;;0.63;100.00;98050.13;5112250;28;20586;-57
2024/01/29 05:34:44;;;;;;;25.53;13.10;;;;;;;0.56;100.00;98048.59;5112365;28;20237;-59
2024/01/29 05:37:11;;;;;;;32.60;11.90;;;;;;;0.44;100.00;98054.16;5125490;28;20231;-58
2024/01/29 05:39:37;;;;;;;24.03;11.50;;;;;;;0.43;100.00;98049.84;5130161;28;20224;-58
2024/01/29 05:42:08;;;;;;;29.50;16.03;;;;;;;0.39;100.00;98054.31;5135788;28;20215;-58
2024/01/29 05:44:35;;;;;;;25.47;15.00;;;;;;;0.34;100.00;98052.75;5135261;28;20224;-57
2024/01/29 05:47:01;;;;;;;28.73;14.87;;;;;;;0.39;100.00;98045.66;5132445;28;20189;-58
2024/01/29 05:49:30;;;;;;;44.70;12.83;;;;;;;0.32;100.00;98046.75;5119580;28;20316;-58
2024/01/29 05:51:56;;;;;;;17.87;11.87;;;;;;;0.41;100.00;98051.66;5113973;28;20233;-58
2024/01/29 05:54:23;;;;;;;17.73;11.63;;;;;;;0.36;100.00;98050.94;5116267;28;20589;-58
2024/01/29 05:56:50;;;;;;;26.87;11.27;;;;;;;0.28;100.00;98055.53;5117199;28;21542;-59
2024/01/29 05:59:17;;;;;;;18.97;11.47;;;;;;;0.32;100.00;98063.19;5121675;28;20215;-59
2024/01/29 06:01:46;;;;;;;27.43;11.47;;;;;;;0.30;100.00;98054.59;5123596;28;20297;-58
2024/01/29 06:04:14;;;;;;;36.57;11.70;;;;;;;0.36;100.00;98054.41;5120703;28;20203;-58
2024/01/29 06:06:43;;;;;;;40.13;11.97;;;;;;;0.37;100.00;98056.09;5120890;28;20197;-59
2024/01/29 06:09:10;;;;;;;33.73;12.37;;;;;;;0.46;100.00;98044.59;5121168;28;20209;-58
2024/01/29 06:11:38;;;;;;;36.17;14.80;;;;;;;0.46;100.00;98042.81;5122210;28;20208;-58
2024/01/29 06:14:05;;;;;;;30.37;12.23;;;;;;;0.47;100.00;98048.88;5121569;28;20617;-59
2024/01/29 06:16:32;;;;;;;31.67;12.93;;;;;;;0.56;100.00;98048.59;5121622;28;20673;-59
2024/01/29 06:19:00;;;;;;;16.73;11.80;;;;;;;0.55;100.00;98046.03;5121150;28;20278;-58
2024/01/29 06:21:26;;;;;;;34.90;13.33;;;;;;;0.56;100.00;98048.59;5117657;28;20243;-58
2024/01/29 06:23:56;;;;;;;15.53;11.00;;;;;;;0.62;100.00;98043.19;5115749;28;20235;-58
2024/01/29 06:26:22;;;;;;;16.97;11.53;;;;;;;0.60;100.00;98038.94;5114482;28;20669;-58
2024/01/29 06:28:51;;;;;;;25.30;12.10;;;;;;;0.59;100.00;98042.44;5117185;28;20281;-58
2024/01/29 06:31:18;;;;;;;46.10;12.47;;;;;;;0.56;100.00;98047.75;5117638;28;20705;-56
2024/01/29 06:33:45;;;;;;;30.53;11.60;;;;;;;0.56;100.00;98047.75;5116424;28;20282;-58
2024/01/29 06:36:16;;;;;;;31.50;12.27;;;;;;;0.50;100.00;98051.38;5115464;28;20205;-58
2024/01/29 06:38:43;;;;;;;16.93;12.23;;;;;;;0.53;100.00;98047.84;5114108;28;20206;-58
2024/01/29 06:41:19;;;;;;;19.10;11.17;;;;;;;0.50;100.00;98049.63;5114223;28;20934;-58
2024/01/29 06:43:48;;;;;;;27.33;11.93;;;;;;;0.48;100.00;98058.38;5116486;28;20283;-58
2024/01/29 06:46:15;;;;;;;19.40;11.00;;;;;;;0.48;100.00;98056.66;5117532;28;20221;-59
2024/01/29 06:48:42;;;;;;;21.47;11.60;;;;;;;0.53;100.00;98053.06;5124448;28;20228;-57
2024/01/29 06:51:08;;;;;;;12.20;10.73;;;;;;;0.61;100.00;98051.91;5130423;28;20233;-59
2024/01/29 06:53:37;;;;;;;15.07;10.63;;;;;;;0.58;100.00;98058.94;5116301;28;21372;-58
2024/01/29 06:56:06;;;;;;;14.87;10.63;;;;;;;0.53;100.00;98055.66;5123902;28;20227;-58
2024/01/29 06:58:36;;;;;;;26.03;11.20;;;;;;;0.38;100.00;98059.56;5125791;28;20292;-58
2024/01/29 07:01:02;;;;;;;15.93;10.33;;;;;;;0.47;100.00;98069.69;5123296;28;20225;-58
2024/01/29 07:03:29;;;;;;;20.47;10.90;;;;;;;0.44;100.00;98064.59;5116256;28;20225;-59
2024/01/29 07:05:56;;;;;;;30.90;12.00;;;;;;;0.50;100.00;98065.25;5113697;28;20224;-58
2024/01/29 07:08:23;;;;;;;23.50;10.80;;;;;;;0.54;100.00;98058.19;5113030;28;20540;-58
2024/01/29 07:10:50;;;;;;;44.53;12.23;;;;;;;0.49;100.00;98065.31;5112350;28;20197;-58
2024/01/29 07:13:16;;;;;;;51.73;13.77;;;;;;;0.46;100.00;98063.63;5113372;28;20205;-58
2024/01/29 07:15:44;;;;;;;13.30;11.43;;;;;;;0.47;100.00;98065.34;5113576;28;20519;-58
2024/01/29 07:18:11;;;;;;;14.83;11.03;;;;;;;0.46;100.00;98073.22;5112682;28;20215;-58
2024/01/29 07:20:40;;;;;;;17.80;11.23;;;;;;;0.43;100.00;98070.66;5113533;28;20196;-59
2024/01/29 07:23:08;;;;;;;15.67;11.67;;;;;;;0.38;100.00;98068.22;5113086;28;20591;-58
2024/01/29 07:25:35;;;;;;;21.53;12.10;;;;;;;0.37;100.00;98074.31;5112734;28;20248;-59
2024/01/29 07:28:03;;;;;;;27.93;13.43;;;;;;;0.44;100.00;98077.59;5112750;28;20203;-58
2024/01/29 07:30:29;;;;;;;22.03;12.63;;;;;;;0.50;100.00;98075.66;5113151;28;20283;-58
2024/01/29 07:32:57;;;;;;;33.40;13.93;;;;;;;0.56;100.00;98079.84;5112686;28;20229;-58
2024/01/29 07:35:24;;;;;;;17.97;14.03;;;;;;;0.60;100.00;98086.66;5113166;28;20203;-59
2024/01/29 07:37:53;;;;;;;16.97;12.83;;;;;;;0.63;100.00;98083.94;5113030;28;20571;-57
2024/01/29 07:40:20;;;;;;;21.87;13.60;;;;;;;0.66;100.00;98091.66;5112731;28;20201;-58
2024/01/29 07:42:47;;;;;;;23.37;12.07;;;;;;;0.73;100.00;98087.97;5113034;28;20197;-59
2024/01/29 07:45:13;;;;;;;17.00;13.03;;;;;;;0.71;100.00;98097.56;5112922;28;20239;-59
2024/01/29 07:47:40;;;;;;;15.30;12.40;;;;;;;0.75;100.00;98095.72;5112960;28;20286;-59
2024/01/29 07:50:09;;;;;;;22.53;13.17;;;;;;;0.72;100.00;98096.66;5112874;28;20201;-58
2024/01/29 07:52:36;;;;;;;22.87;13.67;;;;;;;0.79;100.00;98092.97;5113432;28;20284;-58
2024/01/29 07:55:02;;;;;;;14.73;11.63;;;;;;;0.72;100.00;98085.41;5112525;28;20208;-58
2024/01/29 07:57:30;;;;;;;22.70;13.53;;;;;;;0.71;100.00;98094.97;5112225;28;20673;-59
2024/01/29 07:59:57;;;;;;;20.40;12.77;;;;;;;0.66;100.00;98096.88;5111896;28;20205;-59
2024/01/29 08:02:24;;;;;;;23.87;12.83;;;;;;;0.73;100.00;98098.38;5111846;28;20192;-58
2024/01/29 08:04:50;;;;;;;52.03;14.73;;;;;;;0.73;100.00;98102.72;5112480;28;20205;-58
2024/01/29 08:07:18;;;;;;;31.97;13.37;;;;;;;0.78;100.00;98101.69;5112127;28;20200;-58
2024/01/29 08:09:46;;;;;;;25.40;13.90;;;;;;;0.83;100.00;98097.19;5110698;28;20205;-58
2024/01/29 08:12:13;;;;;;;23.13;13.73;;;;;;;0.91;100.00;98089.13;5112401;28;20215;-58
2024/01/29 08:14:39;;;;;;;31.47;14.23;;;;;;;0.95;100.00;98099.41;5112389;27;20208;-59
2024/01/29 08:17:08;;;;;;;31.27;13.50;;;;;;;0.96;100.00;98100.25;5111883;28;20642;-59
2024/01/29 08:19:34;;;;;;;20.00;13.27;;;;;;;0.98;100.00;98096.72;5112220;28;20546;-59
2024/01/29 08:22:03;;;;;;;21.17;13.83;;;;;;;1.06;100.00;98090.41;5111656;28;20215;-59
2024/01/29 08:24:31;;;;;;;27.20;15.40;;;;;;;0.88;100.00;98095.31;5111992;28;20219;-58
2024/01/29 08:27:00;;;;;;;35.30;13.40;;;;;;;0.98;100.00;98088.91;5111562;28;20216;-58
2024/01/29 08:29:27;;;;;;;31.73;14.03;;;;;;;0.93;100.00;98090.78;5112199;28;20196;-59
2024/01/29 08:31:53;;;;;;;32.83;14.83;;;;;;;0.88;100.00;98087.50;5111895;28;20528;-58
2024/01/29 08:34:23;;;;;;;17.67;13.30;;;;;;;0.96;100.00;98090.69;5112048;28;20543;-59
2024/01/29 08:36:51;;;;;;;46.00;13.87;;;;;;;0.82;100.00;98098.09;5111395;28;20270;-57
2024/01/29 08:39:18;;;;;;;14.17;12.37;;;;;;;0.98;100.00;98099.31;5111750;28;20197;-57
2024/01/29 08:41:45;;;;;;;17.23;13.17;;;;;;;1.07;100.00;98097.28;5111446;28;20213;-58
2024/01/29 08:44:12;;;;;;;22.17;13.77;;;;;;;1.13;100.00;98102.31;5111466;28;20223;-58
2024/01/29 08:46:40;;;;;;;28.43;14.03;;;;;;;0.95;100.00;98102.03;5111640;28;20224;-57
2024/01/29 08:49:06;;;;;;;34.00;14.70;;;;;;;0.87;100.00;98101.41;5111552;28;20200;-58
2024/01/29 08:51:33;;;;;;;33.93;13.97;;;;;;;0.95;100.00;98098.56;5111840;28;20287;-58
2024/01/29 08:53:59;;;;;;;19.67;13.83;;;;;;;1.08;100.00;98109.44;5111470;28;20287;-58
2024/01/29 08:56:26;;;;;;;18.73;13.13;;;;;;;1.22;100.00;98102.88;5111417;28;20728;-58
2024/01/29 08:58:54;;;;;;;19.37;13.23;;;;;;;1.33;100.00;98111.19;5110906;28;20589;-58
2024/01/29 09:01:21;;;;;;;23.73;13.73;;;;;;;1.30;100.00;98102.63;5111615;28;20225;-59
2024/01/29 09:03:47;;;;;;;19.83;13.60;;;;;;;1.39;100.00;98104.91;5114190;28;20201;-58
2024/01/29 09:06:14;;;;;;;29.47;14.43;;;;;;;1.44;100.00;98108.22;5118941;28;20284;-58
2024/01/29 09:08:43;;;;;;;30.50;15.93;;;;;;;1.37;100.00;98111.94;5123813;28;20209;-58
2024/01/29 09:11:09;;;;;;;19.73;13.33;;;;;;;1.47;100.00;98108.97;5111818;28;20239;-58
2024/01/29 09:13:36;;;;;;;19.53;13.53;;;;;;;1.60;100.00;98106.78;5109847;28;20284;-58
2024/01/29 09:16:05;;;;;;;17.00;13.80;;;;;;;1.72;100.00;98101.16;5111858;28;20458;-57
2024/01/29 09:18:31;;;;;;;22.87;14.50;;;;;;;1.68;100.00;98102.16;5111453;28;20219;-58
2024/01/29 09:20:58;;;;;;;25.87;14.20;;;;;;;1.66;100.00;98100.53;5111513;28;20201;-58
2024/01/29 09:23:25;;;;;;;25.63;14.23;;;;;;;1.80;100.00;98106.97;5111289;28;20197;-58
2024/01/29 09:25:52;;;;;;;16.53;13.53;;;;;;;1.81;100.00;98111.25;5110612;28;20248;-59
2024/01/29 09:28:19;;;;;;;21.57;13.97;;;;;;;1.78;100.00;98113.97;5111265;28;20205;-58
2024/01/29 09:30:46;;;;;;;18.90;14.40;;;;;;;1.78;100.00;98116.59;5110728;28;20697;-57
2024/01/29 09:33:16;;;;;;;28.17;14.30;;;;;;;1.92;100.00;98116.94;5110041;28;20637;-58
2024/01/29 09:35:43;;;;;;;15.07;13.23;;;;;;;1.98;100.00;98119.34;5110998;28;20613;-58
2024/01/29 09:38:10;;;;;;;20.37;15.43;;;;;;;1.98;100.00;98121.94;5111087;28;20238;-58
2024/01/29 09:40:36;;;;;;;16.10;13.33;;;;;;;2.17;100.00;98110.84;5110828;28;20292;-58
2024/01/29 09:43:06;;;;;;;15.93;14.23;;;;;;;2.33;100.00;98109.38;5111877;28;20196;-58
2024/01/29 09:45:35;;;;;;;20.97;15.13;;;;;;;2.36;100.00;98114.50;5110831;28;20259;-60
2024/01/29 09:48:03;;;;;;;19.23;13.80;;;;;;;2.23;100.00;98115.88;5110911;28;20209;-58
2024/01/29 09:50:31;;;;;;;17.37;13.97;;;;;;;2.31;100.00;98119.88;5110680;28;21452;-58
2024/01/29 09:52:59;;;;;;;15.60;13.10;;;;;;;2.35;100.00;98120.63;5110474;28;20209;-59
2024/01/29 09:55:26;;;;;;;15.83;13.50;;;;;;;2.29;100.00;98116.50;5109988;28;20201;-59
2024/01/29 09:57:54;;;;;;;30.73;15.13;;;;;;;2.30;100.00;98119.94;5111042;28;20303;-58
2024/01/29 10:00:21;;;;;;;17.30;14.13;;;;;;;2.24;100.00;98122.75;5110607;28;20221;-58
2024/01/29 10:02:50;;;;;;;15.27;13.67;;;;;;;2.24;100.00;98121.00;5111351;28;20296;-58
2024/01/29 10:05:17;;;;;;;19.90;13.43;;;;;;;2.22;100.00;98119.38;5110474;28;20211;-57
2024/01/29 10:07:45;;;;;;;16.40;12.87;;;;;;;2.37;100.00;98118.81;5111290;28;20215;-57
2024/01/29 10:10:12;;;;;;;15.07;13.10;;;;;;;2.46;100.00;98124.53;5111029;28;20540;-60
2024/01/29 10:12:39;;;;;;;14.93;13.40;;;;;;;2.63;100.00;98123.03;5110664;28;20205;-58
2024/01/29 10:15:07;;;;;;;16.90;14.53;;;;;;;2.67;100.00;98120.25;5110468;28;20699;-59
2024/01/29 10:17:34;;;;;;;15.77;13.47;;;;;;;2.53;100.00;98119.06;5110834;28;20300;-59
2024/01/29 10:20:00;;;;;;;16.13;14.43;;;;;;;2.58;100.00;98118.00;5110634;28;20198;-58
2024/01/29 10:22:27;;;;;;;16.47;14.23;;;;;;;2.55;100.00;98114.66;5111083;28;20401;-58
2024/01/29 10:25:02;;;;;;;16.77;14.97;;;;;;;2.78;100.00;98115.47;5110570;28;20204;-59
2024/01/29 10:27:29;;;;;;;17.90;14.40;;;;;;;2.99;100.00;98108.56;5110692;28;20228;-58
2024/01/29 10:29:56;;;;;;;16.37;13.60;;;;;;;3.03;100.00;98112.75;5110964;28;20208;-59
2024/01/29 10:32:23;;;;;;;15.60;13.93;;;;;;;3.22;100.00;98112.88;5111298;28;21078;-58
2024/01/29 10:34:50;;;;;;;15.90;14.27;;;;;;;3.37;100.00;98109.59;5109546;28;20201;-58
2024/01/29 10:37:17;;;;;;;15.30;13.70;;;;;;;3.54;100.00;98101.06;5110845;28;20193;-59
2024/01/29 10:39:45;;;;;;;17.93;14.87;;;;;;;3.95;100.00;98103.63;5109976;28;20197;-59
2024/01/29 10:42:14;;;;;;;18.30;14.47;;;;;;;3.94;100.00;98104.53;5111708;28;20516;-58
2024/01/29 10:44:41;;;;;;;15.60;13.20;;;;;;;3.78;100.00;98100.88;5114294;28;20314;-58
2024/01/29 10:47:11;;;;;;;14.70;13.20;;;;;;;4.12;100.00;98089.78;5115209;28;20278;-61
2024/01/29 10:49:38;;;;;;;15.37;13.67;;;;;;;4.60;100.00;98094.56;5125835;28;20311;-58
2024/01/29 10:52:05;;;;;;;15.43;13.63;;;;;;;5.06;100.00;98089.78;5128007;28;20209;-58
2024/01/29 10:54:33;;;;;;;15.60;14.10;;;;;;;5.94;100.00;98080.97;5114453;28;20231;-59
2024/01/29 10:57:00;;;;;;;15.07;13.30;;;;;;;6.56;100.00;98085.50;5124562;28;20273;-58
2024/01/29 10:59:29;;;;;;;14.40;12.90;;;;;;;6.98;100.00;98080.50;5132359;28;20221;-58
2024/01/29 11:01:56;;;;;;;13.93;11.57;;;;;;;7.56;100.00;98078.97;5133867;28;20237;-58
2024/01/29 11:04:22;;;;;;;13.40;12.03;;;;;;;7.85;97.38;98081.59;5124389;28;20547;-59
2024/01/29 11:06:54;;;;;;;13.07;11.60;;;;;;;7.93;95.51;98081.97;5118855;28;20251;-59
2024/01/29 11:09:24;;;;;;;12.23;11.07;;;;;;;8.69;91.75;98082.56;5121849;28;20197;-58
2024/01/29 11:11:51;;;;;;;12.20;11.00;;;;;;;8.81;86.72;98079.19;5113123;28;20201;-59
2024/01/29 11:14:21;;;;;;;12.23;11.13;;;;;;;8.81;89.80;98076.53;5113919;28;20293;-59
2024/01/29 11:16:51;;;;;;;23.88;11.32;;;;;;;8.67;92.32;98076.56;5113853;28;20201;-58
2024/01/29 11:19:18;;;;;;;12.82;11.13;;;;;;;8.88;90.84;98069.94;5114958;28;20288;-59